EAG5502 SBGR-SBRF
Flight info
| Callsign | EAG5502 |
|---|---|
| Flight time | 2h 25m |
| Altitude | 39000 |
| Route | VUMEV UZ14 AKPAS DCT ANBEX |
| Aircraft | A346/H-SDE2E3FGHIJ3J4J5M1RWXY/LB1D1 |
Departure
| Time | 2026-05-07 20:58 |
|---|---|
| Airport | São Paulo/Guarulhos–Governor André Franco Montoro International Airport (SBGR) |
Arrival
| Time | 2026-05-07 23:23 |
|---|---|
| Airport | Recife/Guararapes - Gilberto Freyre International Airport (SBRF) |
| Time | Latitude | Longitude | Altitude | Speed | Heading |
|---|---|---|---|---|---|
| 2026-05-07 20:20 | -23.42693 | -46.47462 | 2469 ft | 0 kts | 74° |
| 2026-05-07 20:48 | -23.42698 | -46.47482 | 2472 ft | 4 kts | 72° |
| 2026-05-07 20:48 | -23.42703 | -46.47499 | 2473 ft | 4 kts | 103° |
| 2026-05-07 20:48 | -23.42696 | -46.47519 | 2476 ft | 4 kts | 123° |
| 2026-05-07 20:49 | -23.42680 | -46.47536 | 2470 ft | 4 kts | 152° |
| 2026-05-07 20:49 | -23.42656 | -46.47545 | 2474 ft | 4 kts | 165° |
| 2026-05-07 20:49 | -23.42643 | -46.47549 | 2473 ft | 1 kts | 163° |
| 2026-05-07 20:49 | -23.42642 | -46.47549 | 2473 ft | 0 kts | 163° |
| 2026-05-07 20:54 | -23.42652 | -46.47546 | 2475 ft | 3 kts | 163° |
| 2026-05-07 20:54 | -23.42682 | -46.47539 | 2473 ft | 6 kts | 170° |
| 2026-05-07 20:54 | -23.42739 | -46.47528 | 2471 ft | 11 kts | 170° |
| 2026-05-07 20:54 | -23.42825 | -46.47508 | 2471 ft | 14 kts | 162° |
| 2026-05-07 20:55 | -23.42888 | -46.47487 | 2473 ft | 13 kts | 176° |
| 2026-05-07 20:55 | -23.42958 | -46.47547 | 2469 ft | 14 kts | 256° |
| 2026-05-07 20:55 | -23.42987 | -46.47654 | 2471 ft | 16 kts | 253° |
| 2026-05-07 20:55 | -23.43024 | -46.47790 | 2472 ft | 22 kts | 253° |
| 2026-05-07 20:56 | -23.43070 | -46.47957 | 2474 ft | 24 kts | 253° |
| 2026-05-07 20:56 | -23.43118 | -46.48133 | 2471 ft | 25 kts | 253° |
| 2026-05-07 20:56 | -23.43168 | -46.48316 | 2473 ft | 26 kts | 254° |
| 2026-05-07 20:56 | -23.43254 | -46.48379 | 2475 ft | 16 kts | 167° |
| 2026-05-07 20:57 | -23.43282 | -46.48371 | 2473 ft | 1 kts | 165° |
| 2026-05-07 20:57 | -23.43295 | -46.48367 | 2473 ft | 3 kts | 165° |
| 2026-05-07 20:57 | -23.43344 | -46.48352 | 2473 ft | 14 kts | 164° |
| 2026-05-07 20:57 | -23.43402 | -46.48240 | 2472 ft | 26 kts | 74° |
| 2026-05-07 20:58 | -23.43288 | -46.47818 | 2471 ft | 99 kts | 73° |
| 2026-05-07 20:58 | -23.43019 | -46.46821 | 2474 ft | 172 kts | 73° |
| 2026-05-07 20:58 | -23.42632 | -46.45412 | 2780 ft | 205 kts | 70° |
| 2026-05-07 20:58 | -23.42213 | -46.43938 | 3563 ft | 199 kts | 69° |
| 2026-05-07 20:59 | -23.41801 | -46.42521 | 4383 ft | 196 kts | 68° |
| 2026-05-07 20:59 | -23.41372 | -46.41057 | 4922 ft | 210 kts | 68° |
| 2026-05-07 20:59 | -23.40804 | -46.39539 | 5389 ft | 222 kts | 50° |
| 2026-05-07 20:59 | -23.39640 | -46.38396 | 5838 ft | 234 kts | 32° |
| 2026-05-07 21:00 | -23.38230 | -46.37367 | 6255 ft | 254 kts | 30° |
| 2026-05-07 21:00 | -23.36711 | -46.36268 | 6810 ft | 268 kts | 31° |
| 2026-05-07 21:00 | -23.35159 | -46.35100 | 7642 ft | 272 kts | 32° |
| 2026-05-07 21:00 | -23.33610 | -46.33899 | 8560 ft | 275 kts | 32° |
| 2026-05-07 21:01 | -23.32054 | -46.32672 | 9503 ft | 278 kts | 33° |
| 2026-05-07 21:01 | -23.30485 | -46.31423 | 10363 ft | 281 kts | 33° |
| 2026-05-07 21:01 | -23.28873 | -46.30138 | 10970 ft | 296 kts | 33° |
| 2026-05-07 21:01 | -23.27164 | -46.28769 | 11400 ft | 314 kts | 34° |
| 2026-05-07 21:02 | -23.25361 | -46.27318 | 11805 ft | 332 kts | 34° |
| 2026-05-07 21:02 | -23.23453 | -46.25777 | 12159 ft | 350 kts | 35° |
| 2026-05-07 21:02 | -23.21446 | -46.24155 | 12485 ft | 368 kts | 35° |
| 2026-05-07 21:02 | -23.19352 | -46.22463 | 12935 ft | 380 kts | 36° |
| 2026-05-07 21:03 | -23.17215 | -46.20736 | 13660 ft | 384 kts | 36° |
| 2026-05-07 21:03 | -23.15066 | -46.19000 | 14349 ft | 387 kts | 36° |
| 2026-05-07 21:03 | -23.12892 | -46.17242 | 14949 ft | 391 kts | 36° |
| 2026-05-07 21:03 | -23.10691 | -46.15465 | 15576 ft | 396 kts | 36° |
| 2026-05-07 21:04 | -23.08467 | -46.13671 | 16193 ft | 400 kts | 36° |
| 2026-05-07 21:04 | -23.06219 | -46.11858 | 16796 ft | 405 kts | 36° |
| 2026-05-07 21:04 | -23.03940 | -46.10022 | 17393 ft | 410 kts | 36° |
| 2026-05-07 21:04 | -23.01639 | -46.08168 | 18002 ft | 414 kts | 36° |
| 2026-05-07 21:05 | -22.99320 | -46.06302 | 18547 ft | 419 kts | 36° |
| 2026-05-07 21:05 | -22.96958 | -46.04398 | 19023 ft | 424 kts | 35° |
| 2026-05-07 21:05 | -22.94575 | -46.02480 | 19500 ft | 429 kts | 35° |
| 2026-05-07 21:05 | -22.92161 | -46.00539 | 19978 ft | 434 kts | 35° |
| 2026-05-07 21:06 | -22.89727 | -45.98584 | 20446 ft | 439 kts | 35° |
| 2026-05-07 21:06 | -22.87240 | -45.96619 | 20909 ft | 444 kts | 34° |
| 2026-05-07 21:06 | -22.84694 | -45.94687 | 21386 ft | 449 kts | 31° |
| 2026-05-07 21:06 | -22.82097 | -45.92736 | 21815 ft | 455 kts | 32° |
| 2026-05-07 21:07 | -22.79473 | -45.90775 | 22264 ft | 460 kts | 33° |
| 2026-05-07 21:07 | -22.76861 | -45.88817 | 22691 ft | 466 kts | 32° |
| 2026-05-07 21:07 | -22.74180 | -45.86810 | 23147 ft | 470 kts | 32° |
| 2026-05-07 21:07 | -22.71471 | -45.84774 | 23604 ft | 475 kts | 32° |
| 2026-05-07 21:08 | -22.68744 | -45.82727 | 23992 ft | 479 kts | 32° |
| 2026-05-07 21:08 | -22.65978 | -45.80647 | 24394 ft | 483 kts | 32° |
| 2026-05-07 21:08 | -22.63211 | -45.78569 | 24800 ft | 486 kts | 33° |
| 2026-05-07 21:08 | -22.60420 | -45.76474 | 25230 ft | 489 kts | 33° |
| 2026-05-07 21:09 | -22.57610 | -45.74369 | 25646 ft | 493 kts | 33° |
| 2026-05-07 21:09 | -22.54779 | -45.72247 | 26047 ft | 497 kts | 33° |
| 2026-05-07 21:09 | -22.51929 | -45.70110 | 26426 ft | 500 kts | 33° |
| 2026-05-07 21:09 | -22.49059 | -45.67958 | 26853 ft | 504 kts | 33° |
| 2026-05-07 21:10 | -22.46159 | -45.65784 | 27256 ft | 508 kts | 33° |
| 2026-05-07 21:10 | -22.43240 | -45.63598 | 27661 ft | 512 kts | 34° |
| 2026-05-07 21:10 | -22.40299 | -45.61396 | 28060 ft | 516 kts | 34° |
| 2026-05-07 21:10 | -22.37343 | -45.59185 | 28495 ft | 518 kts | 34° |
| 2026-05-07 21:11 | -22.34376 | -45.56966 | 29118 ft | 517 kts | 34° |
| 2026-05-07 21:11 | -22.31421 | -45.54755 | 29754 ft | 517 kts | 34° |
| 2026-05-07 21:11 | -22.25505 | -45.50338 | 30805 ft | 517 kts | 34° |
| 2026-05-07 21:12 | -22.22541 | -45.48128 | 31291 ft | 517 kts | 34° |
| 2026-05-07 21:12 | -22.19573 | -45.45916 | 31815 ft | 518 kts | 34° |
| 2026-05-07 21:12 | -22.16615 | -45.43710 | 32331 ft | 518 kts | 34° |
| 2026-05-07 21:12 | -22.13646 | -45.41498 | 32853 ft | 518 kts | 34° |
| 2026-05-07 21:13 | -22.10678 | -45.39287 | 33351 ft | 519 kts | 34° |
| 2026-05-07 21:13 | -22.07703 | -45.37075 | 33849 ft | 519 kts | 34° |
| 2026-05-07 21:13 | -22.04775 | -45.34889 | 34299 ft | 519 kts | 35° |
| 2026-05-07 21:13 | -22.01887 | -45.32552 | 34752 ft | 519 kts | 38° |
| 2026-05-07 21:14 | -21.99045 | -45.30161 | 35177 ft | 519 kts | 38° |
| 2026-05-07 21:14 | -21.96201 | -45.27754 | 35569 ft | 520 kts | 38° |
| 2026-05-07 21:14 | -21.93356 | -45.25346 | 35941 ft | 520 kts | 38° |
| 2026-05-07 21:14 | -21.90505 | -45.22935 | 36306 ft | 521 kts | 38° |
| 2026-05-07 21:15 | -21.87649 | -45.20525 | 36667 ft | 522 kts | 38° |
| 2026-05-07 21:15 | -21.84790 | -45.18114 | 37024 ft | 522 kts | 38° |
| 2026-05-07 21:15 | -21.81929 | -45.15703 | 37353 ft | 523 kts | 38° |
| 2026-05-07 21:15 | -21.79059 | -45.13287 | 37637 ft | 524 kts | 38° |
| 2026-05-07 21:16 | -21.76178 | -45.10863 | 37872 ft | 526 kts | 38° |
| 2026-05-07 21:16 | -21.73291 | -45.08435 | 38123 ft | 528 kts | 38° |
| 2026-05-07 21:16 | -21.70390 | -45.05996 | 38355 ft | 530 kts | 38° |
| 2026-05-07 21:16 | -21.67516 | -45.03583 | 38584 ft | 532 kts | 38° |
| 2026-05-07 21:17 | -21.64594 | -45.01131 | 38800 ft | 534 kts | 38° |
| 2026-05-07 21:17 | -21.61669 | -44.98676 | 38976 ft | 535 kts | 38° |
| 2026-05-07 21:17 | -21.55794 | -44.93751 | 39040 ft | 535 kts | 38° |
| 2026-05-07 21:18 | -21.49920 | -44.88830 | 39044 ft | 535 kts | 38° |
| 2026-05-07 21:18 | -21.44044 | -44.83913 | 39046 ft | 535 kts | 38° |
| 2026-05-07 21:19 | -21.38165 | -44.79000 | 39048 ft | 535 kts | 38° |
| 2026-05-07 21:19 | -21.32296 | -44.74096 | 39047 ft | 535 kts | 38° |
| 2026-05-07 21:20 | -21.26417 | -44.69191 | 39045 ft | 535 kts | 38° |
| 2026-05-07 21:20 | -21.20537 | -44.64289 | 39042 ft | 535 kts | 38° |
| 2026-05-07 21:21 | -21.14657 | -44.59393 | 39057 ft | 535 kts | 38° |
| 2026-05-07 21:21 | -21.08781 | -44.54502 | 39055 ft | 535 kts | 38° |
| 2026-05-07 21:22 | -21.02944 | -44.49650 | 39053 ft | 535 kts | 38° |
| 2026-05-07 21:22 | -20.97065 | -44.44767 | 39059 ft | 535 kts | 38° |
| 2026-05-07 21:23 | -20.91164 | -44.39879 | 39057 ft | 540 kts | 38° |
| 2026-05-07 21:23 | -20.85202 | -44.34946 | 39058 ft | 542 kts | 38° |
| 2026-05-07 21:24 | -20.79232 | -44.30008 | 39058 ft | 542 kts | 38° |
| 2026-05-07 21:24 | -20.73259 | -44.25070 | 39061 ft | 542 kts | 38° |
| 2026-05-07 21:25 | -20.67286 | -44.20138 | 39062 ft | 542 kts | 38° |
| 2026-05-07 21:25 | -20.61328 | -44.15201 | 39063 ft | 542 kts | 38° |
| 2026-05-07 21:26 | -20.55412 | -44.10202 | 39061 ft | 542 kts | 39° |
| 2026-05-07 21:26 | -20.49483 | -44.05210 | 39070 ft | 546 kts | 38° |
| 2026-05-07 21:27 | -20.43482 | -44.00297 | 39066 ft | 547 kts | 38° |
| 2026-05-07 21:27 | -20.37438 | -43.95373 | 39072 ft | 547 kts | 38° |
| 2026-05-07 21:28 | -20.31392 | -43.90438 | 39074 ft | 547 kts | 38° |
| 2026-05-07 21:28 | -20.25344 | -43.85501 | 39068 ft | 547 kts | 38° |
| 2026-05-07 21:29 | -20.19300 | -43.80572 | 39082 ft | 547 kts | 38° |
| 2026-05-07 21:29 | -20.13261 | -43.75650 | 39079 ft | 546 kts | 38° |
| 2026-05-07 21:30 | -20.07221 | -43.70733 | 39081 ft | 546 kts | 38° |
| 2026-05-07 21:30 | -20.01187 | -43.65824 | 39081 ft | 546 kts | 38° |
| 2026-05-07 21:31 | -19.95151 | -43.60919 | 39079 ft | 546 kts | 38° |
| 2026-05-07 21:31 | -19.89112 | -43.56017 | 39063 ft | 546 kts | 38° |
| 2026-05-07 21:32 | -19.83082 | -43.51118 | 39066 ft | 545 kts | 38° |
| 2026-05-07 21:32 | -19.77101 | -43.46254 | 39064 ft | 545 kts | 38° |
| 2026-05-07 21:33 | -19.71077 | -43.41361 | 39066 ft | 545 kts | 38° |
| 2026-05-07 21:33 | -19.65044 | -43.36468 | 39070 ft | 544 kts | 38° |
| 2026-05-07 21:34 | -19.59026 | -43.31594 | 39067 ft | 544 kts | 38° |
| 2026-05-07 21:34 | -19.53009 | -43.26722 | 39068 ft | 544 kts | 38° |
| 2026-05-07 21:35 | -19.46986 | -43.21851 | 39064 ft | 544 kts | 38° |
| 2026-05-07 21:35 | -19.40964 | -43.16983 | 39064 ft | 544 kts | 38° |
| 2026-05-07 21:36 | -19.34944 | -43.12120 | 39060 ft | 544 kts | 38° |
| 2026-05-07 21:36 | -19.28924 | -43.07265 | 39056 ft | 543 kts | 38° |
| 2026-05-07 21:37 | -19.22913 | -43.02419 | 39066 ft | 543 kts | 38° |
| 2026-05-07 21:37 | -19.16873 | -42.97559 | 39060 ft | 544 kts | 38° |
| 2026-05-07 21:38 | -19.10844 | -42.92705 | 39057 ft | 544 kts | 38° |
| 2026-05-07 21:38 | -19.04812 | -42.87856 | 39058 ft | 544 kts | 38° |
| 2026-05-07 21:39 | -18.98785 | -42.83014 | 39059 ft | 544 kts | 38° |
| 2026-05-07 21:39 | -18.92789 | -42.78204 | 39060 ft | 545 kts | 38° |
| 2026-05-07 21:40 | -18.86744 | -42.73365 | 39061 ft | 545 kts | 38° |
| 2026-05-07 21:40 | -18.80698 | -42.68527 | 39061 ft | 545 kts | 38° |
| 2026-05-07 21:41 | -18.74637 | -42.63679 | 39062 ft | 545 kts | 38° |
| 2026-05-07 21:41 | -18.68592 | -42.58850 | 39064 ft | 546 kts | 38° |
| 2026-05-07 21:42 | -18.62534 | -42.54017 | 39055 ft | 546 kts | 38° |
| 2026-05-07 21:42 | -18.56510 | -42.49213 | 39057 ft | 546 kts | 38° |
| 2026-05-07 21:43 | -18.50446 | -42.44379 | 39050 ft | 546 kts | 38° |
| 2026-05-07 21:43 | -18.44391 | -42.39559 | 39050 ft | 545 kts | 39° |
| 2026-05-07 21:44 | -18.38334 | -42.34737 | 39044 ft | 546 kts | 39° |
| 2026-05-07 21:44 | -18.32273 | -42.29918 | 39041 ft | 546 kts | 39° |
| 2026-05-07 21:45 | -18.26204 | -42.25104 | 39039 ft | 545 kts | 39° |
| 2026-05-07 21:45 | -18.20141 | -42.20299 | 39044 ft | 545 kts | 39° |
| 2026-05-07 21:46 | -18.14076 | -42.15496 | 39042 ft | 546 kts | 39° |
| 2026-05-07 21:46 | -18.08050 | -42.10725 | 39044 ft | 545 kts | 39° |
| 2026-05-07 21:47 | -18.01993 | -42.05934 | 39048 ft | 544 kts | 39° |
| 2026-05-07 21:47 | -17.95945 | -42.01153 | 39060 ft | 544 kts | 39° |
| 2026-05-07 21:48 | -17.89888 | -41.96372 | 39070 ft | 545 kts | 39° |
| 2026-05-07 21:48 | -17.83824 | -41.91589 | 39056 ft | 544 kts | 39° |
| 2026-05-07 21:49 | -17.77767 | -41.86813 | 39069 ft | 544 kts | 39° |
| 2026-05-07 21:49 | -17.71754 | -41.82075 | 39071 ft | 544 kts | 39° |
| 2026-05-07 21:50 | -17.65697 | -41.77306 | 39079 ft | 544 kts | 39° |
| 2026-05-07 21:50 | -17.60662 | -41.73353 | 39073 ft | 543 kts | 39° |
| 2026-05-07 21:51 | -17.54614 | -41.68598 | 39073 ft | 543 kts | 39° |
| 2026-05-07 21:51 | -17.48564 | -41.63846 | 39072 ft | 543 kts | 39° |
| 2026-05-07 21:52 | -17.42515 | -41.59099 | 39068 ft | 544 kts | 39° |
| 2026-05-07 21:52 | -17.36457 | -41.54360 | 39078 ft | 542 kts | 39° |
| 2026-05-07 21:53 | -17.30413 | -41.49630 | 39075 ft | 542 kts | 39° |
| 2026-05-07 21:53 | -17.24366 | -41.44898 | 39077 ft | 542 kts | 39° |
| 2026-05-07 21:54 | -17.18324 | -41.40175 | 39073 ft | 542 kts | 39° |
| 2026-05-07 21:54 | -17.12325 | -41.35489 | 39074 ft | 541 kts | 39° |
| 2026-05-07 21:55 | -17.06288 | -41.30777 | 39077 ft | 541 kts | 39° |
| 2026-05-07 21:55 | -17.00256 | -41.26071 | 39070 ft | 541 kts | 39° |
| 2026-05-07 21:56 | -16.94222 | -41.21368 | 39069 ft | 541 kts | 39° |
| 2026-05-07 21:56 | -16.88180 | -41.16664 | 39074 ft | 541 kts | 39° |
| 2026-05-07 21:57 | -16.82141 | -41.11965 | 39067 ft | 541 kts | 39° |
| 2026-05-07 21:57 | -16.76134 | -41.07295 | 39066 ft | 542 kts | 39° |
| 2026-05-07 21:58 | -16.70088 | -41.02597 | 39069 ft | 541 kts | 39° |
| 2026-05-07 21:58 | -16.64044 | -40.97907 | 39068 ft | 541 kts | 39° |
| 2026-05-07 21:59 | -16.58002 | -40.93222 | 39066 ft | 541 kts | 39° |
| 2026-05-07 21:59 | -16.51954 | -40.88535 | 39073 ft | 541 kts | 39° |
| 2026-05-07 22:00 | -16.45952 | -40.83887 | 39071 ft | 541 kts | 39° |
| 2026-05-07 22:00 | -16.39908 | -40.79212 | 39069 ft | 541 kts | 39° |
| 2026-05-07 22:01 | -16.33858 | -40.74534 | 39068 ft | 541 kts | 39° |
| 2026-05-07 22:01 | -16.27812 | -40.69862 | 39061 ft | 541 kts | 39° |
| 2026-05-07 22:02 | -16.21768 | -40.65198 | 39064 ft | 540 kts | 39° |
| 2026-05-07 22:02 | -16.15728 | -40.60539 | 39059 ft | 540 kts | 39° |
| 2026-05-07 22:03 | -16.09686 | -40.55882 | 39055 ft | 540 kts | 39° |
| 2026-05-07 22:03 | -16.03692 | -40.51264 | 39064 ft | 539 kts | 39° |
| 2026-05-07 22:04 | -15.97661 | -40.46621 | 39066 ft | 539 kts | 39° |
| 2026-05-07 22:04 | -15.91632 | -40.41992 | 39060 ft | 538 kts | 39° |
| 2026-05-07 22:05 | -15.85602 | -40.37369 | 39059 ft | 538 kts | 39° |
| 2026-05-07 22:05 | -15.79571 | -40.32745 | 39054 ft | 538 kts | 39° |
| 2026-05-07 22:06 | -15.73544 | -40.28127 | 39056 ft | 538 kts | 39° |
| 2026-05-07 22:06 | -15.67560 | -40.23542 | 39061 ft | 537 kts | 39° |
| 2026-05-07 22:07 | -15.61553 | -40.18943 | 39055 ft | 535 kts | 38° |
| 2026-05-07 22:07 | -15.55556 | -40.14365 | 39053 ft | 535 kts | 38° |
| 2026-05-07 22:08 | -15.49554 | -40.09797 | 39051 ft | 535 kts | 38° |
| 2026-05-07 22:08 | -15.43556 | -40.05231 | 39052 ft | 535 kts | 38° |
| 2026-05-07 22:09 | -15.37604 | -40.00697 | 39056 ft | 533 kts | 38° |
| 2026-05-07 22:09 | -15.31623 | -39.96149 | 39052 ft | 532 kts | 38° |
| 2026-05-07 22:10 | -15.25649 | -39.91612 | 39051 ft | 532 kts | 38° |
| 2026-05-07 22:10 | -15.19675 | -39.87075 | 39054 ft | 532 kts | 38° |
| 2026-05-07 22:11 | -15.13699 | -39.82536 | 39049 ft | 533 kts | 38° |
| 2026-05-07 22:11 | -15.07717 | -39.77997 | 39057 ft | 532 kts | 37° |
| 2026-05-07 22:12 | -15.01794 | -39.73509 | 39054 ft | 531 kts | 37° |
| 2026-05-07 22:12 | -14.95836 | -39.69005 | 39055 ft | 531 kts | 37° |
| 2026-05-07 22:13 | -14.89866 | -39.64511 | 39048 ft | 531 kts | 37° |
| 2026-05-07 22:13 | -14.83890 | -39.60018 | 39048 ft | 531 kts | 37° |
| 2026-05-07 22:14 | -14.77955 | -39.55554 | 39055 ft | 530 kts | 37° |
| 2026-05-07 22:14 | -14.71993 | -39.51074 | 39049 ft | 529 kts | 37° |
| 2026-05-07 22:15 | -14.66034 | -39.46599 | 39044 ft | 529 kts | 37° |
| 2026-05-07 22:15 | -14.60071 | -39.42123 | 39047 ft | 529 kts | 37° |
| 2026-05-07 22:16 | -14.54113 | -39.37654 | 39041 ft | 529 kts | 37° |
| 2026-05-07 22:16 | -14.48151 | -39.33183 | 39044 ft | 529 kts | 37° |
| 2026-05-07 22:17 | -14.42243 | -39.28752 | 39042 ft | 528 kts | 36° |
| 2026-05-07 22:17 | -14.36295 | -39.24301 | 39038 ft | 528 kts | 36° |
| 2026-05-07 22:18 | -14.27369 | -39.17628 | 39041 ft | 528 kts | 36° |
| 2026-05-07 22:19 | -14.21418 | -39.13180 | 39020 ft | 528 kts | 36° |
| 2026-05-07 22:19 | -14.15516 | -39.08764 | 39030 ft | 527 kts | 36° |
| 2026-05-07 22:20 | -14.09578 | -39.04336 | 39033 ft | 527 kts | 36° |
| 2026-05-07 22:20 | -14.03642 | -38.99911 | 39027 ft | 527 kts | 36° |
| 2026-05-07 22:21 | -13.97707 | -38.95488 | 39025 ft | 527 kts | 36° |
| 2026-05-07 22:21 | -13.91814 | -38.91094 | 39021 ft | 526 kts | 35° |
| 2026-05-07 22:22 | -13.85883 | -38.86680 | 39021 ft | 526 kts | 35° |
| 2026-05-07 22:22 | -13.79952 | -38.82269 | 39022 ft | 526 kts | 35° |
| 2026-05-07 22:23 | -13.74023 | -38.77860 | 39021 ft | 526 kts | 35° |
| 2026-05-07 22:23 | -13.68093 | -38.73449 | 39019 ft | 525 kts | 35° |
| 2026-05-07 22:24 | -13.62205 | -38.69078 | 39018 ft | 525 kts | 34° |
| 2026-05-07 22:24 | -13.56282 | -38.64682 | 39018 ft | 524 kts | 34° |
| 2026-05-07 22:25 | -13.50370 | -38.60297 | 39016 ft | 523 kts | 34° |
| 2026-05-07 22:25 | -13.44463 | -38.55917 | 39012 ft | 523 kts | 34° |
| 2026-05-07 22:26 | -13.38559 | -38.51545 | 39013 ft | 523 kts | 34° |
| 2026-05-07 22:26 | -13.32693 | -38.47204 | 39013 ft | 523 kts | 34° |
| 2026-05-07 22:27 | -13.26787 | -38.42834 | 39013 ft | 523 kts | 34° |
| 2026-05-07 22:27 | -13.20892 | -38.38468 | 38994 ft | 521 kts | 33° |
| 2026-05-07 22:28 | -13.15002 | -38.34115 | 38997 ft | 521 kts | 33° |
| 2026-05-07 22:28 | -13.09106 | -38.29763 | 38991 ft | 521 kts | 33° |
| 2026-05-07 22:29 | -13.03217 | -38.25423 | 38984 ft | 521 kts | 33° |
| 2026-05-07 22:29 | -12.97366 | -38.21113 | 38972 ft | 521 kts | 33° |
| 2026-05-07 22:30 | -12.91470 | -38.16763 | 38982 ft | 522 kts | 33° |
| 2026-05-07 22:30 | -12.85578 | -38.12425 | 38995 ft | 521 kts | 33° |
| 2026-05-07 22:31 | -12.79686 | -38.08091 | 39004 ft | 521 kts | 33° |
| 2026-05-07 22:31 | -12.73797 | -38.03759 | 39004 ft | 521 kts | 33° |
| 2026-05-07 22:32 | -12.67902 | -37.99418 | 39000 ft | 523 kts | 32° |
| 2026-05-07 22:32 | -12.62019 | -37.95098 | 39019 ft | 523 kts | 32° |
| 2026-05-07 22:33 | -12.56117 | -37.90764 | 39017 ft | 521 kts | 32° |
| 2026-05-07 22:33 | -12.50225 | -37.86442 | 39012 ft | 521 kts | 32° |
| 2026-05-07 22:34 | -12.44330 | -37.82115 | 38996 ft | 522 kts | 32° |
| 2026-05-07 22:34 | -12.38426 | -37.77787 | 39002 ft | 522 kts | 32° |
| 2026-05-07 22:35 | -12.32516 | -37.73458 | 39006 ft | 522 kts | 32° |
| 2026-05-07 22:35 | -12.26652 | -37.69162 | 39008 ft | 521 kts | 32° |
| 2026-05-07 22:36 | -12.20753 | -37.64845 | 39006 ft | 521 kts | 31° |
| 2026-05-07 22:36 | -12.14864 | -37.60537 | 39002 ft | 520 kts | 31° |
| 2026-05-07 22:37 | -12.08968 | -37.56227 | 39004 ft | 520 kts | 31° |
| 2026-05-07 22:37 | -12.03078 | -37.51920 | 39003 ft | 520 kts | 31° |
| 2026-05-07 22:38 | -11.97228 | -37.47646 | 39000 ft | 520 kts | 31° |
| 2026-05-07 22:38 | -11.91287 | -37.43497 | 38989 ft | 512 kts | 27° |
| 2026-05-07 22:39 | -11.85165 | -37.39844 | 39001 ft | 508 kts | 25° |
| 2026-05-07 22:39 | -11.79037 | -37.36245 | 39004 ft | 508 kts | 25° |
| 2026-05-07 22:40 | -11.72913 | -37.32642 | 38996 ft | 508 kts | 25° |
| 2026-05-07 22:40 | -11.66790 | -37.29037 | 38988 ft | 508 kts | 25° |
| 2026-05-07 22:41 | -11.60674 | -37.25435 | 38999 ft | 507 kts | 25° |
| 2026-05-07 22:41 | -11.54560 | -37.21832 | 39002 ft | 506 kts | 25° |
| 2026-05-07 22:42 | -11.48468 | -37.18245 | 38998 ft | 505 kts | 25° |
| 2026-05-07 22:42 | -11.42385 | -37.14668 | 38995 ft | 505 kts | 25° |
| 2026-05-07 22:43 | -11.36300 | -37.11095 | 38992 ft | 504 kts | 25° |
| 2026-05-07 22:43 | -11.30268 | -37.07548 | 38996 ft | 504 kts | 25° |
| 2026-05-07 22:44 | -11.24200 | -37.03983 | 38979 ft | 503 kts | 25° |
| 2026-05-07 22:44 | -11.18126 | -37.00416 | 38972 ft | 503 kts | 25° |
| 2026-05-07 22:45 | -11.12064 | -36.96858 | 38958 ft | 501 kts | 25° |
| 2026-05-07 22:45 | -11.06021 | -36.93315 | 38961 ft | 501 kts | 25° |
| 2026-05-07 22:46 | -10.99992 | -36.89780 | 38967 ft | 501 kts | 25° |
| 2026-05-07 22:46 | -10.93951 | -36.86240 | 38972 ft | 500 kts | 25° |
| 2026-05-07 22:47 | -10.87959 | -36.82730 | 38984 ft | 500 kts | 25° |
| 2026-05-07 22:47 | -10.81929 | -36.79203 | 38993 ft | 499 kts | 25° |
| 2026-05-07 22:48 | -10.75911 | -36.75680 | 39000 ft | 499 kts | 25° |
| 2026-05-07 22:48 | -10.69902 | -36.72163 | 39000 ft | 497 kts | 25° |
| 2026-05-07 22:49 | -10.63917 | -36.68663 | 39003 ft | 496 kts | 25° |
| 2026-05-07 22:49 | -10.57936 | -36.65170 | 38995 ft | 494 kts | 25° |
| 2026-05-07 22:50 | -10.51982 | -36.61693 | 39000 ft | 493 kts | 25° |
| 2026-05-07 22:50 | -10.46037 | -36.58221 | 39001 ft | 493 kts | 25° |
| 2026-05-07 22:51 | -10.40093 | -36.54753 | 39003 ft | 493 kts | 25° |
| 2026-05-07 22:51 | -10.34145 | -36.51284 | 39003 ft | 493 kts | 25° |
| 2026-05-07 22:52 | -10.28249 | -36.47846 | 38997 ft | 490 kts | 25° |
| 2026-05-07 22:52 | -10.22338 | -36.44400 | 39000 ft | 490 kts | 25° |
| 2026-05-07 22:53 | -10.16426 | -36.40957 | 39003 ft | 489 kts | 25° |
| 2026-05-07 22:53 | -10.10517 | -36.37516 | 39003 ft | 489 kts | 25° |
| 2026-05-07 22:54 | -10.04606 | -36.34076 | 38997 ft | 489 kts | 25° |
| 2026-05-07 22:54 | -9.98719 | -36.30648 | 39007 ft | 487 kts | 25° |
| 2026-05-07 22:55 | -9.92834 | -36.27227 | 39004 ft | 487 kts | 25° |
| 2026-05-07 22:55 | -9.86986 | -36.23822 | 39002 ft | 478 kts | 25° |
| 2026-05-07 22:56 | -9.81292 | -36.20512 | 39004 ft | 473 kts | 25° |
| 2026-05-07 22:56 | -9.75568 | -36.17191 | 38448 ft | 474 kts | 24° |
| 2026-05-07 22:56 | -9.72710 | -36.15532 | 37785 ft | 474 kts | 24° |
| 2026-05-07 22:57 | -9.69848 | -36.13871 | 37115 ft | 474 kts | 24° |
| 2026-05-07 22:57 | -9.66987 | -36.12211 | 36497 ft | 474 kts | 24° |
| 2026-05-07 22:57 | -9.64127 | -36.10552 | 35856 ft | 474 kts | 24° |
| 2026-05-07 22:57 | -9.61255 | -36.08887 | 35162 ft | 476 kts | 24° |
| 2026-05-07 22:58 | -9.58367 | -36.07213 | 34475 ft | 479 kts | 24° |
| 2026-05-07 22:58 | -9.55465 | -36.05531 | 33738 ft | 482 kts | 24° |
| 2026-05-07 22:58 | -9.52543 | -36.03839 | 32949 ft | 485 kts | 24° |
| 2026-05-07 22:58 | -9.49603 | -36.02136 | 32200 ft | 487 kts | 25° |
| 2026-05-07 22:59 | -9.46658 | -36.00431 | 31462 ft | 488 kts | 25° |
| 2026-05-07 22:59 | -9.43747 | -35.98743 | 30787 ft | 489 kts | 25° |
| 2026-05-07 22:59 | -9.40744 | -35.97003 | 30075 ft | 490 kts | 25° |
| 2026-05-07 22:59 | -9.37775 | -35.95284 | 29239 ft | 492 kts | 25° |
| 2026-05-07 23:00 | -9.34807 | -35.93564 | 28454 ft | 492 kts | 25° |
| 2026-05-07 23:00 | -9.31837 | -35.91842 | 27737 ft | 490 kts | 25° |
| 2026-05-07 23:00 | -9.28941 | -35.90163 | 27300 ft | 483 kts | 25° |
| 2026-05-07 23:00 | -9.26050 | -35.88486 | 26822 ft | 476 kts | 25° |
| 2026-05-07 23:01 | -9.23179 | -35.86823 | 26275 ft | 473 kts | 26° |
| 2026-05-07 23:01 | -9.20342 | -35.85181 | 25795 ft | 467 kts | 26° |
| 2026-05-07 23:01 | -9.17534 | -35.83556 | 25339 ft | 462 kts | 26° |
| 2026-05-07 23:01 | -9.14758 | -35.81948 | 24878 ft | 457 kts | 26° |
| 2026-05-07 23:02 | -9.12008 | -35.80357 | 24451 ft | 452 kts | 26° |
| 2026-05-07 23:02 | -9.09291 | -35.78785 | 24031 ft | 447 kts | 26° |
| 2026-05-07 23:02 | -9.06602 | -35.77231 | 23601 ft | 443 kts | 26° |
| 2026-05-07 23:02 | -9.03968 | -35.75628 | 23096 ft | 441 kts | 29° |
| 2026-05-07 23:03 | -9.01472 | -35.73848 | 22581 ft | 439 kts | 34° |
| 2026-05-07 23:03 | -8.99120 | -35.71880 | 22065 ft | 438 kts | 39° |
| 2026-05-07 23:03 | -8.96891 | -35.69793 | 21570 ft | 435 kts | 40° |
| 2026-05-07 23:03 | -8.94697 | -35.67698 | 21077 ft | 432 kts | 41° |
| 2026-05-07 23:04 | -8.92519 | -35.65612 | 20581 ft | 429 kts | 41° |
| 2026-05-07 23:04 | -8.90357 | -35.63543 | 20112 ft | 426 kts | 41° |
| 2026-05-07 23:04 | -8.88206 | -35.61486 | 19634 ft | 423 kts | 42° |
| 2026-05-07 23:04 | -8.86069 | -35.59447 | 19188 ft | 421 kts | 42° |
| 2026-05-07 23:05 | -8.83944 | -35.57420 | 18688 ft | 419 kts | 43° |
| 2026-05-07 23:05 | -8.81827 | -35.55401 | 18200 ft | 418 kts | 43° |
| 2026-05-07 23:05 | -8.79747 | -35.53416 | 17651 ft | 416 kts | 43° |
| 2026-05-07 23:05 | -8.77649 | -35.51416 | 17187 ft | 412 kts | 43° |
| 2026-05-07 23:06 | -8.75572 | -35.49436 | 16734 ft | 408 kts | 43° |
| 2026-05-07 23:06 | -8.73515 | -35.47474 | 16310 ft | 404 kts | 44° |
| 2026-05-07 23:06 | -8.71481 | -35.45537 | 15898 ft | 400 kts | 44° |
| 2026-05-07 23:06 | -8.69468 | -35.43619 | 15481 ft | 396 kts | 44° |
| 2026-05-07 23:07 | -8.67471 | -35.41719 | 15057 ft | 393 kts | 44° |
| 2026-05-07 23:07 | -8.65483 | -35.39835 | 14613 ft | 390 kts | 44° |
| 2026-05-07 23:07 | -8.63508 | -35.37964 | 14193 ft | 387 kts | 44° |
| 2026-05-07 23:07 | -8.62210 | -35.36733 | 13903 ft | 385 kts | 44° |
| 2026-05-07 23:08 | -8.60263 | -35.34887 | 13426 ft | 382 kts | 44° |
| 2026-05-07 23:08 | -8.58332 | -35.33055 | 12979 ft | 378 kts | 45° |
| 2026-05-07 23:08 | -8.56423 | -35.31243 | 12551 ft | 375 kts | 45° |
| 2026-05-07 23:08 | -8.54529 | -35.29445 | 12121 ft | 371 kts | 45° |
| 2026-05-07 23:09 | -8.52656 | -35.27668 | 11688 ft | 368 kts | 45° |
| 2026-05-07 23:09 | -8.50798 | -35.25905 | 11266 ft | 365 kts | 45° |
| 2026-05-07 23:09 | -8.48959 | -35.24160 | 10894 ft | 359 kts | 45° |
| 2026-05-07 23:09 | -8.47173 | -35.22466 | 10784 ft | 345 kts | 45° |
| 2026-05-07 23:10 | -8.45454 | -35.20837 | 10638 ft | 332 kts | 45° |
| 2026-05-07 23:10 | -8.43797 | -35.19268 | 10533 ft | 320 kts | 45° |
| 2026-05-07 23:10 | -8.42204 | -35.17760 | 10412 ft | 308 kts | 45° |
| 2026-05-07 23:10 | -8.40686 | -35.16326 | 10296 ft | 297 kts | 45° |
| 2026-05-07 23:11 | -8.39208 | -35.14930 | 10196 ft | 285 kts | 45° |
| 2026-05-07 23:11 | -8.37782 | -35.13582 | 10094 ft | 276 kts | 45° |
| 2026-05-07 23:11 | -8.36382 | -35.12257 | 9983 ft | 273 kts | 46° |
| 2026-05-07 23:11 | -8.34990 | -35.10939 | 9632 ft | 275 kts | 46° |
| 2026-05-07 23:12 | -8.33596 | -35.09620 | 9303 ft | 274 kts | 46° |
| 2026-05-07 23:12 | -8.32205 | -35.08304 | 9000 ft | 273 kts | 46° |
| 2026-05-07 23:12 | -8.30818 | -35.06994 | 8716 ft | 272 kts | 46° |
| 2026-05-07 23:12 | -8.29437 | -35.05689 | 8402 ft | 271 kts | 46° |
| 2026-05-07 23:13 | -8.27928 | -35.04540 | 8093 ft | 274 kts | 31° |
| 2026-05-07 23:13 | -8.26147 | -35.03842 | 7791 ft | 276 kts | 18° |
| 2026-05-07 23:13 | -8.24275 | -35.03383 | 7482 ft | 277 kts | 16° |
| 2026-05-07 23:13 | -8.22399 | -35.02960 | 7193 ft | 276 kts | 15° |
| 2026-05-07 23:14 | -8.20560 | -35.02543 | 6989 ft | 272 kts | 16° |
| 2026-05-07 23:14 | -8.18761 | -35.02131 | 6962 ft | 258 kts | 16° |
| 2026-05-07 23:14 | -8.17019 | -35.01937 | 6946 ft | 249 kts | 359° |
| 2026-05-07 23:14 | -8.15305 | -35.02259 | 6657 ft | 255 kts | 347° |
| 2026-05-07 23:15 | -8.13599 | -35.02789 | 6150 ft | 256 kts | 345° |
| 2026-05-07 23:15 | -8.11923 | -35.03347 | 5750 ft | 251 kts | 345° |
| 2026-05-07 23:15 | -8.10284 | -35.03887 | 5391 ft | 245 kts | 345° |
| 2026-05-07 23:15 | -8.08682 | -35.04402 | 5053 ft | 239 kts | 345° |
| 2026-05-07 23:16 | -8.07114 | -35.04899 | 4722 ft | 234 kts | 345° |
| 2026-05-07 23:16 | -8.05577 | -35.05383 | 4411 ft | 229 kts | 345° |
| 2026-05-07 23:16 | -8.04080 | -35.05852 | 4110 ft | 221 kts | 345° |
| 2026-05-07 23:16 | -8.02626 | -35.06307 | 3777 ft | 217 kts | 345° |
| 2026-05-07 23:17 | -8.01201 | -35.06752 | 3462 ft | 212 kts | 345° |
| 2026-05-07 23:17 | -7.99779 | -35.06967 | 3134 ft | 203 kts | 12° |
| 2026-05-07 23:17 | -7.98554 | -35.06427 | 2829 ft | 190 kts | 46° |
| 2026-05-07 23:17 | -7.97846 | -35.05388 | 2779 ft | 177 kts | 73° |
| 2026-05-07 23:18 | -7.97455 | -35.04216 | 2783 ft | 176 kts | 76° |
| 2026-05-07 23:18 | -7.97089 | -35.03041 | 2675 ft | 175 kts | 76° |
| 2026-05-07 23:18 | -7.96723 | -35.01870 | 2543 ft | 174 kts | 76° |
| 2026-05-07 23:18 | -7.96351 | -35.00700 | 2290 ft | 175 kts | 76° |
| 2026-05-07 23:19 | -7.95976 | -34.99533 | 2035 ft | 172 kts | 78° |
| 2026-05-07 23:19 | -7.95998 | -34.98380 | 1793 ft | 162 kts | 114° |
| 2026-05-07 23:19 | -7.96723 | -34.97599 | 1698 ft | 153 kts | 150° |
| 2026-05-07 23:19 | -7.97706 | -34.97225 | 1703 ft | 149 kts | 158° |
| 2026-05-07 23:20 | -7.98690 | -34.96898 | 1692 ft | 148 kts | 158° |
| 2026-05-07 23:20 | -7.99672 | -34.96579 | 1688 ft | 148 kts | 159° |
| 2026-05-07 23:20 | -8.00651 | -34.96261 | 1677 ft | 148 kts | 158° |
| 2026-05-07 23:20 | -8.01631 | -34.95937 | 1698 ft | 148 kts | 159° |
| 2026-05-07 23:21 | -8.02612 | -34.95613 | 1682 ft | 148 kts | 159° |
| 2026-05-07 23:21 | -8.03594 | -34.95292 | 1679 ft | 148 kts | 159° |
| 2026-05-07 23:21 | -8.04576 | -34.94972 | 1649 ft | 149 kts | 160° |
| 2026-05-07 23:21 | -8.05567 | -34.94664 | 1381 ft | 148 kts | 160° |
| 2026-05-07 23:22 | -8.06542 | -34.94336 | 1079 ft | 147 kts | 159° |
| 2026-05-07 23:22 | -8.07506 | -34.94006 | 818 ft | 146 kts | 160° |
| 2026-05-07 23:22 | -8.08468 | -34.93678 | 624 ft | 146 kts | 162° |
| 2026-05-07 23:22 | -8.09426 | -34.93378 | 467 ft | 146 kts | 160° |
| 2026-05-07 23:23 | -8.10391 | -34.93045 | 262 ft | 147 kts | 161° |
| 2026-05-07 23:23 | -8.11367 | -34.92732 | 107 ft | 147 kts | 162° |
| 2026-05-07 23:23 | -8.12309 | -34.92425 | 49 ft | 121 kts | 162° |
| 2026-05-07 23:23 | -8.12861 | -34.92243 | 54 ft | 48 kts | 162° |
| 2026-05-07 23:24 | -8.13073 | -34.92172 | 49 ft | 20 kts | 162° |
| 2026-05-07 23:24 | -8.13207 | -34.92102 | 49 ft | 24 kts | 140° |
| 2026-05-07 23:24 | -8.13281 | -34.92014 | 50 ft | 10 kts | 99° |
| 2026-05-07 23:24 | -8.13254 | -34.91971 | 51 ft | 5 kts | 16° |
| 2026-05-07 23:25 | -8.13200 | -34.91980 | 52 ft | 13 kts | 342° |
| 2026-05-07 23:25 | -8.13103 | -34.92013 | 50 ft | 16 kts | 341° |
| 2026-05-07 23:25 | -8.12993 | -34.92051 | 53 ft | 18 kts | 341° |
| 2026-05-07 23:25 | -8.12866 | -34.92027 | 51 ft | 21 kts | 26° |
| 2026-05-07 23:26 | -8.12812 | -34.91988 | 50 ft | 7 kts | 67° |
| 2026-05-07 23:26 | -8.12830 | -34.91934 | 47 ft | 10 kts | 123° |
| 2026-05-07 23:26 | -8.12834 | -34.91927 | 49 ft | 2 kts | 128° |
| 2026-05-07 23:26 | -8.12836 | -34.91924 | 50 ft | 0 kts | 127° |